createdAt,value
2018-01-27T00:00:33.286Z,71.75
2018-01-27T00:03:01.875Z,70.75
2018-01-27T00:05:30.587Z,70.99
2018-01-27T00:07:59.131Z,71.51
2018-01-27T00:10:27.628Z,70.21
2018-01-27T00:12:56.167Z,70.00
2018-01-27T00:15:24.673Z,70.58
2018-01-27T00:17:53.219Z,71.63
2018-01-27T00:20:22.527Z,71.90
2018-01-27T00:22:52.835Z,72.52
2018-01-27T00:25:22.105Z,72.34
2018-01-27T00:27:50.650Z,71.55
2018-01-27T00:30:19.143Z,71.70
2018-01-27T00:32:47.698Z,72.01
2018-01-27T00:35:21.167Z,71.70
2018-01-27T00:37:49.651Z,71.49
2018-01-27T00:40:18.199Z,71.33
2018-01-27T00:42:47.495Z,71.01
2018-01-27T00:45:16.752Z,72.09
2018-01-27T00:47:45.243Z,71.80
2018-01-27T00:50:13.995Z,71.55
2018-01-27T00:52:42.482Z,71.64
2018-01-27T00:55:11.811Z,71.40
2018-01-27T00:57:40.403Z,72.50
2018-01-27T01:00:08.976Z,73.15
2018-01-27T01:02:38.231Z,72.38
2018-01-27T01:05:06.795Z,71.63
2018-01-27T01:07:35.347Z,71.27
2018-01-27T01:10:03.916Z,71.08
2018-01-27T01:12:34.195Z,71.60
2018-01-27T01:15:02.744Z,71.34
2018-01-27T01:17:31.300Z,71.31
2018-01-27T01:20:00.879Z,71.31
2018-01-27T01:22:29.367Z,71.91
2018-01-27T01:24:58.334Z,71.81
2018-01-27T01:27:26.923Z,71.35
2018-01-27T01:29:55.420Z,71.02
2018-01-27T01:32:24.011Z,71.16
2018-01-27T01:34:52.676Z,70.99
2018-01-27T01:37:21.179Z,70.96
2018-01-27T01:39:49.680Z,71.36
2018-01-27T01:42:24.404Z,73.17
2018-01-27T01:44:53.665Z,73.85
2018-01-27T01:47:22.215Z,73.12
2018-01-27T01:49:50.762Z,73.50
2018-01-27T01:52:20.023Z,73.22
2018-01-27T01:54:48.575Z,73.42
2018-01-27T01:57:17.214Z,73.95
2018-01-27T01:59:45.775Z,73.75
2018-01-27T02:02:14.267Z,72.41
2018-01-27T02:04:42.975Z,72.63
2018-01-27T02:07:12.292Z,73.59
2018-01-27T02:09:40.787Z,74.40
2018-01-27T02:12:09.371Z,74.62
2018-01-27T02:14:37.866Z,75.44
2018-01-27T02:17:06.423Z,75.43
2018-01-27T02:19:35.968Z,75.51
2018-01-27T02:22:04.523Z,74.33
2018-01-27T02:24:33.019Z,74.59
2018-01-27T02:27:01.557Z,75.11
2018-01-27T02:29:30.883Z,75.12
2018-01-27T02:32:00.204Z,74.45
2018-01-27T02:34:28.739Z,74.71
2018-01-27T02:36:58.746Z,74.93
2018-01-27T02:39:27.263Z,74.71
2018-01-27T02:41:56.667Z,74.71
2018-01-27T02:44:25.163Z,73.94
2018-01-27T02:46:53.664Z,74.13
2018-01-27T02:49:22.207Z,73.70
2018-01-27T02:51:51.523Z,72.65
2018-01-27T02:54:20.015Z,72.43
2018-01-27T02:56:48.821Z,72.47
2018-01-27T02:59:17.363Z,72.10
2018-01-27T03:01:46.615Z,72.23
2018-01-27T03:04:15.207Z,72.48
2018-01-27T03:06:43.699Z,72.48
2018-01-27T03:09:12.204Z,72.74
2018-01-27T03:11:41.895Z,72.78
2018-01-27T03:14:10.452Z,73.28
2018-01-27T03:16:39.008Z,72.73
2018-01-27T03:19:07.853Z,72.64
2018-01-27T03:21:37.126Z,72.76
2018-01-27T03:24:05.630Z,72.34
2018-01-27T03:26:34.275Z,72.38
2018-01-27T03:29:02.831Z,72.27
2018-01-27T03:31:31.393Z,71.99
2018-01-27T03:34:01.087Z,71.98
2018-01-27T03:36:29.643Z,72.76
2018-01-27T03:38:58.134Z,72.90
2018-01-27T03:41:26.680Z,72.68
2018-01-27T03:43:55.235Z,72.36
2018-01-27T03:46:24.556Z,72.77
2018-01-27T03:48:53.476Z,72.48
2018-01-27T03:51:21.971Z,72.60
2018-01-27T03:53:50.490Z,73.32
2018-01-27T03:56:19.939Z,73.40
2018-01-27T03:58:48.492Z,73.42
2018-01-27T04:01:16.987Z,73.21
2018-01-27T04:03:45.523Z,72.32
2018-01-27T04:06:14.018Z,72.54
2018-01-27T04:08:43.279Z,72.58
2018-01-27T04:11:11.904Z,72.38
2018-01-27T04:13:41.163Z,72.46
2018-01-27T04:16:09.655Z,72.57
2018-01-27T04:18:38.194Z,71.70
2018-01-27T04:21:06.743Z,72.83
2018-01-27T04:23:36.066Z,72.52
2018-01-27T04:26:04.631Z,71.78
2018-01-27T04:28:33.990Z,72.30
2018-01-27T04:31:02.511Z,72.17
2018-01-27T04:33:31.822Z,73.20
2018-01-27T04:36:01.079Z,72.64
2018-01-27T04:38:29.572Z,73.51
2018-01-27T04:40:58.111Z,72.38
2018-01-27T04:43:26.663Z,71.86
2018-01-27T04:45:55.934Z,71.77
2018-01-27T04:48:24.708Z,72.93
2018-01-27T04:50:53.268Z,73.18
2018-01-27T04:53:21.766Z,73.69
2018-01-27T04:55:50.311Z,74.08
2018-01-27T04:58:18.798Z,74.00
2018-01-27T05:00:47.291Z,73.43
2018-01-27T05:03:16.040Z,72.96
2018-01-27T05:05:45.304Z,72.96
2018-01-27T05:08:13.808Z,72.95
2018-01-27T05:10:42.669Z,73.57
2018-01-27T05:13:11.166Z,72.54
2018-01-27T05:15:39.671Z,72.06
2018-01-27T05:18:08.992Z,71.87
2018-01-27T05:20:38.303Z,72.37
2018-01-27T05:23:06.798Z,72.41
2018-01-27T05:25:35.540Z,72.19
2018-01-27T05:28:04.043Z,72.09
2018-01-27T05:30:33.311Z,72.22
2018-01-27T05:33:01.916Z,72.10
2018-01-27T05:35:31.244Z,72.17
2018-01-27T05:37:59.741Z,71.58
2018-01-27T05:40:28.293Z,71.41
2018-01-27T05:42:57.581Z,71.95
2018-01-27T05:45:26.847Z,72.12
2018-01-27T05:47:55.459Z,72.40
2018-01-27T05:50:24.724Z,72.31
2018-01-27T05:52:53.223Z,71.82
2018-01-27T05:55:21.783Z,72.05
2018-01-27T05:57:50.563Z,71.55
2018-01-27T06:00:19.128Z,70.84
2018-01-27T06:02:47.876Z,70.64
2018-01-27T06:05:17.207Z,71.21
2018-01-27T06:07:45.765Z,71.23
2018-01-27T06:10:15.430Z,71.68
2018-01-27T06:12:43.943Z,71.62
2018-01-27T06:15:12.467Z,69.87
2018-01-27T06:17:41.056Z,69.26
2018-01-27T06:20:09.547Z,69.07
2018-01-27T06:22:38.099Z,69.11
2018-01-27T06:25:07.403Z,68.19
2018-01-27T06:27:36.667Z,66.38
2018-01-27T06:30:05.233Z,66.08
2018-01-27T06:32:33.828Z,63.52
2018-01-27T06:35:02.395Z,63.10
2018-01-27T06:37:30.947Z,62.18
2018-01-27T06:39:59.761Z,62.60
2018-01-27T06:42:28.288Z,60.16
2018-01-27T06:44:57.564Z,61.16
2018-01-27T06:47:26.107Z,60.84
2018-01-27T06:49:54.609Z,59.99
2018-01-27T06:52:23.160Z,60.12
2018-01-27T06:54:52.015Z,60.50
2018-01-27T06:57:20.565Z,58.58
2018-01-27T06:59:49.058Z,57.08
2018-01-27T07:02:17.655Z,57.15
2018-01-27T07:04:46.213Z,56.83
2018-01-27T07:07:14.795Z,55.24
2018-01-27T07:09:43.431Z,55.39
2018-01-27T07:12:12.751Z,53.86
2018-01-27T07:14:41.248Z,55.52
2018-01-27T07:17:09.787Z,53.02
2018-01-27T07:19:39.051Z,54.06
2018-01-27T07:22:07.539Z,52.13
2018-01-27T07:24:36.071Z,52.72
2018-01-27T07:27:04.621Z,53.47
2018-01-27T07:29:33.233Z,53.45
2018-01-27T07:32:02.723Z,53.08
2018-01-27T07:34:32.040Z,52.14
2018-01-27T07:37:00.532Z,53.81
2018-01-27T07:39:29.070Z,51.02
2018-01-27T07:41:57.616Z,50.72
2018-01-27T07:44:26.112Z,52.59
2018-01-27T07:46:55.579Z,51.04
2018-01-27T07:49:24.899Z,49.85
2018-01-27T07:51:53.398Z,49.94
2018-01-27T07:54:22.905Z,49.81
2018-01-27T07:56:51.392Z,51.09
2018-01-27T07:59:20.651Z,48.44
2018-01-27T08:01:49.959Z,48.04
2018-01-27T08:04:19.211Z,46.10
2018-01-27T08:06:47.760Z,49.13
2018-01-27T08:09:17.143Z,50.33
2018-01-27T08:11:46.460Z,49.04
2018-01-27T08:14:14.965Z,47.80
2018-01-27T08:16:43.499Z,49.88
2018-01-27T08:19:12.748Z,50.81
2018-01-27T08:21:41.304Z,47.22
2018-01-27T08:24:10.714Z,45.50
2018-01-27T08:26:39.264Z,45.07
2018-01-27T08:29:07.752Z,47.44
2018-01-27T08:31:37.305Z,44.05
2018-01-27T08:34:05.868Z,47.05
2018-01-27T08:36:34.392Z,46.71
2018-01-27T08:39:03.056Z,47.52
2018-01-27T08:41:31.583Z,44.31
2018-01-27T08:44:00.077Z,45.95
2018-01-27T08:46:28.669Z,44.28
2018-01-27T08:48:57.159Z,47.20
2018-01-27T08:51:25.716Z,46.00
2018-01-27T08:53:54.259Z,45.40
2018-01-27T08:56:22.824Z,44.29
2018-01-27T08:58:51.390Z,43.06
2018-01-27T09:01:20.035Z,42.72
2018-01-27T09:03:49.296Z,43.04
2018-01-27T09:06:17.813Z,43.72
2018-01-27T09:08:47.348Z,43.70
2018-01-27T09:11:15.839Z,43.14
2018-01-27T09:13:44.341Z,42.04
2018-01-27T09:16:12.977Z,43.48
2018-01-27T09:18:42.232Z,41.49
2018-01-27T09:21:10.779Z,42.64
2018-01-27T09:23:39.475Z,45.03
2018-01-27T09:26:07.966Z,42.60
2018-01-27T09:28:36.456Z,41.80
2018-01-27T09:31:05.284Z,42.59
2018-01-27T09:33:34.600Z,42.56
2018-01-27T09:36:03.880Z,42.27
2018-01-27T09:38:33.306Z,42.36
2018-01-27T09:41:02.628Z,43.28
2018-01-27T09:43:31.128Z,42.12
2018-01-27T09:45:59.683Z,44.33
2018-01-27T09:48:28.175Z,42.40
2018-01-27T09:50:56.668Z,42.39
2018-01-27T09:53:25.305Z,44.13
2018-01-27T09:55:53.798Z,42.14
2018-01-27T09:58:22.298Z,40.34
2018-01-27T10:00:51.049Z,42.09
2018-01-27T10:03:19.538Z,40.92
2018-01-27T10:05:48.116Z,42.93
2018-01-27T10:08:16.661Z,40.82
2018-01-27T10:10:45.153Z,41.34
2018-01-27T10:13:13.700Z,40.32
2018-01-27T10:15:42.455Z,40.42
2018-01-27T10:18:11.008Z,41.30
2018-01-27T10:20:39.564Z,40.57
2018-01-27T10:23:08.107Z,38.75
2018-01-27T10:25:37.375Z,40.74
2018-01-27T10:28:05.876Z,39.08
2018-01-27T10:30:34.489Z,38.19
2018-01-27T10:33:02.981Z,39.52
2018-01-27T10:35:31.479Z,38.98
2018-01-27T10:38:00.172Z,39.40
2018-01-27T10:40:28.784Z,42.31
2018-01-27T10:42:58.141Z,39.17
2018-01-27T10:45:26.846Z,38.08
2018-01-27T10:47:55.404Z,36.74
2018-01-27T10:50:24.663Z,37.76
2018-01-27T10:52:53.980Z,35.84
2018-01-27T10:55:22.469Z,38.18
2018-01-27T10:57:51.016Z,36.91
2018-01-27T11:00:20.715Z,38.08
2018-01-27T11:02:49.218Z,37.23
2018-01-27T11:05:18.155Z,36.16
2018-01-27T11:07:46.704Z,34.76
2018-01-27T11:10:15.203Z,35.42
2018-01-27T11:12:43.760Z,35.98
2018-01-27T11:15:13.427Z,36.10
2018-01-27T11:17:41.931Z,34.54
2018-01-27T11:20:11.933Z,34.04
2018-01-27T11:22:40.475Z,35.26
2018-01-27T11:25:09.024Z,36.14
2018-01-27T11:27:38.339Z,37.34
2018-01-27T11:30:06.952Z,37.41
2018-01-27T11:32:35.454Z,36.48
2018-01-27T11:35:03.975Z,36.99
2018-01-27T11:37:33.371Z,36.21
2018-01-27T11:40:02.645Z,36.79
2018-01-27T11:42:31.144Z,36.60
2018-01-27T11:45:00.744Z,35.06
2018-01-27T11:47:29.227Z,36.57
2018-01-27T11:49:59.236Z,34.96
2018-01-27T11:52:27.999Z,33.55
2018-01-27T11:54:56.501Z,34.25
2018-01-27T11:57:25.807Z,32.92
2018-01-27T11:59:54.410Z,33.60
2018-01-27T12:02:23.681Z,35.19
2018-01-27T12:04:52.176Z,32.72
2018-01-27T12:07:21.791Z,33.60
2018-01-27T12:09:51.055Z,35.05
2018-01-27T12:12:19.583Z,32.82
2018-01-27T12:14:48.319Z,34.42
2018-01-27T12:17:16.896Z,34.04
2018-01-27T12:19:45.400Z,33.64
2018-01-27T12:22:14.712Z,33.77
2018-01-27T12:24:44.060Z,33.53
2018-01-27T12:27:12.619Z,34.81
2018-01-27T12:29:41.356Z,34.80
2018-01-27T12:32:09.846Z,35.30
2018-01-27T12:34:39.135Z,34.81
2018-01-27T12:37:07.776Z,32.73
2018-01-27T12:39:36.277Z,34.57
2018-01-27T12:42:04.884Z,34.93
2018-01-27T12:44:33.579Z,33.76
2018-01-27T12:47:02.906Z,34.64
2018-01-27T12:49:31.463Z,35.40
2018-01-27T12:52:00.787Z,35.35
2018-01-27T12:54:30.108Z,34.95
2018-01-27T12:56:58.613Z,33.23
2018-01-27T12:59:27.250Z,33.57
2018-01-27T13:01:55.804Z,32.76
2018-01-27T13:04:24.300Z,33.75
2018-01-27T13:06:53.967Z,32.39
2018-01-27T13:09:22.459Z,33.07
2018-01-27T13:11:50.947Z,32.57
2018-01-27T13:14:19.478Z,32.46
2018-01-27T13:16:47.977Z,32.32
2018-01-27T13:19:16.475Z,32.15
2018-01-27T13:21:45.015Z,31.94
2018-01-27T13:24:14.267Z,31.20
2018-01-27T13:26:42.768Z,31.67
2018-01-27T13:29:11.314Z,33.76
2018-01-27T13:31:39.874Z,32.47
2018-01-27T13:34:08.368Z,33.31
2018-01-27T13:36:36.967Z,33.39
2018-01-27T13:39:05.516Z,32.54
2018-01-27T13:41:34.012Z,31.90
2018-01-27T13:44:02.556Z,32.81
2018-01-27T13:46:32.132Z,31.84
2018-01-27T13:49:00.632Z,34.08
2018-01-27T13:51:29.268Z,31.50
2018-01-27T13:53:57.763Z,33.79
2018-01-27T13:56:26.316Z,31.34
2018-01-27T13:58:55.036Z,31.32
2018-01-27T14:01:23.589Z,31.85
2018-01-27T14:03:52.147Z,32.84
2018-01-27T14:06:21.096Z,32.61
2018-01-27T14:08:50.427Z,33.30
2018-01-27T14:11:18.984Z,33.27
2018-01-27T14:13:48.292Z,33.38
2018-01-27T14:16:17.561Z,32.38
2018-01-27T14:18:46.136Z,34.02
2018-01-27T14:21:15.796Z,33.44
2018-01-27T14:23:44.356Z,33.32
2018-01-27T14:26:13.680Z,34.18
2018-01-27T14:28:42.447Z,34.67
2018-01-27T14:31:10.979Z,35.16
2018-01-27T14:33:39.536Z,35.43
2018-01-27T14:36:08.080Z,34.78
2018-01-27T14:38:41.271Z,34.39
2018-01-27T14:41:10.008Z,34.84
2018-01-27T14:43:38.500Z,35.89
2018-01-27T14:46:07.056Z,36.66
2018-01-27T14:48:35.857Z,37.93
2018-01-27T14:51:04.367Z,38.16
2018-01-27T14:53:32.923Z,38.94
2018-01-27T14:56:02.391Z,39.88
2018-01-27T14:58:30.900Z,41.63
2018-01-27T15:00:59.451Z,42.68
2018-01-27T15:03:28.135Z,42.69
2018-01-27T15:05:57.407Z,43.78
2018-01-27T15:08:25.899Z,44.12
2018-01-27T15:10:55.200Z,45.30
2018-01-27T15:13:24.459Z,45.86
2018-01-27T15:15:52.953Z,46.78
2018-01-27T15:18:21.930Z,46.84
2018-01-27T15:20:50.417Z,47.25
2018-01-27T15:23:18.911Z,47.30
2018-01-27T15:25:47.508Z,47.34
2018-01-27T15:28:15.995Z,47.81
2018-01-27T15:30:45.991Z,48.17
2018-01-27T15:33:14.597Z,48.49
2018-01-27T15:35:43.855Z,49.00
2018-01-27T15:38:12.347Z,49.37
2018-01-27T15:40:40.880Z,48.50
2018-01-27T15:43:10.143Z,49.70
2018-01-27T15:45:38.649Z,50.89
2018-01-27T15:48:07.428Z,51.46
2018-01-27T15:50:35.923Z,51.61
2018-01-27T15:53:05.184Z,52.96
2018-01-27T15:55:33.779Z,52.96
2018-01-27T15:58:02.260Z,53.54
2018-01-27T16:00:30.755Z,54.38
2018-01-27T16:03:00.120Z,56.80
2018-01-27T16:05:28.608Z,57.10
2018-01-27T16:07:57.128Z,56.91
2018-01-27T16:10:25.987Z,56.02
2018-01-27T16:12:54.548Z,56.69
2018-01-27T16:15:23.112Z,57.11
2018-01-27T16:17:52.481Z,57.46
2018-01-27T16:20:20.975Z,57.80
2018-01-27T16:22:49.528Z,58.33
2018-01-27T16:25:18.404Z,58.78
2018-01-27T16:27:47.014Z,59.11
2018-01-27T16:30:15.572Z,59.32
2018-01-27T16:32:44.381Z,59.88
2018-01-27T16:35:12.885Z,59.79
2018-01-27T16:37:41.484Z,59.72
2018-01-27T16:40:10.950Z,60.05
2018-01-27T16:42:39.487Z,60.77
2018-01-27T16:45:08.834Z,61.41
2018-01-27T16:47:37.560Z,61.30
2018-01-27T16:50:06.824Z,61.50
2018-01-27T16:52:35.381Z,61.82
2018-01-27T16:55:03.989Z,61.80
2018-01-27T16:57:32.553Z,61.93
2018-01-27T17:00:01.111Z,62.02
2018-01-27T17:02:30.486Z,62.19
2018-01-27T17:04:59.044Z,62.12
2018-01-27T17:07:27.620Z,62.38
2018-01-27T17:09:56.260Z,62.62
2018-01-27T17:12:25.585Z,62.97
2018-01-27T17:14:54.131Z,63.27
2018-01-27T17:17:24.467Z,63.86
2018-01-27T17:19:53.727Z,64.01
2018-01-27T17:22:22.228Z,64.13
2018-01-27T17:24:52.344Z,63.84
2018-01-27T17:27:20.899Z,64.11
2018-01-27T17:29:49.456Z,64.21
2018-01-27T17:32:18.055Z,64.55
2018-01-27T17:34:46.620Z,64.55
2018-01-27T17:37:15.118Z,64.65
2018-01-27T17:39:46.183Z,64.94
2018-01-27T17:42:14.751Z,65.54
2018-01-27T17:44:43.303Z,66.41
2018-01-27T17:47:11.808Z,65.30
2018-01-27T17:49:40.304Z,65.50
2018-01-27T17:52:09.631Z,65.08
2018-01-27T17:54:38.152Z,65.55
2018-01-27T17:57:06.638Z,65.74
2018-01-27T17:59:35.389Z,65.88
2018-01-27T18:02:03.936Z,66.12
2018-01-27T18:04:33.221Z,65.97
2018-01-27T18:07:02.605Z,66.13
2018-01-27T18:09:31.107Z,66.29
2018-01-27T18:12:00.372Z,66.90
2018-01-27T18:14:28.920Z,67.33
2018-01-27T18:16:57.478Z,67.93
2018-01-27T18:19:26.032Z,68.25
2018-01-27T18:21:54.644Z,68.40
2018-01-27T18:24:23.908Z,68.48
2018-01-27T18:26:52.401Z,68.36
2018-01-27T18:29:21.776Z,68.68
2018-01-27T18:31:50.357Z,68.58
2018-01-27T18:34:18.917Z,68.54
2018-01-27T18:36:47.620Z,68.81
2018-01-27T18:39:16.175Z,69.05
2018-01-27T18:41:44.725Z,69.18
2018-01-27T18:44:13.565Z,69.67
2018-01-27T18:46:42.121Z,70.14
2018-01-27T18:49:10.621Z,69.98
2018-01-27T18:51:39.307Z,69.88
2018-01-27T18:54:07.867Z,70.24
2018-01-27T18:56:37.190Z,69.92
2018-01-27T18:59:05.901Z,70.75
2018-01-27T19:01:34.431Z,71.59
2018-01-27T19:04:03.897Z,71.28
2018-01-27T19:06:32.524Z,71.52
2018-01-27T19:09:01.053Z,71.75
2018-01-27T19:11:30.532Z,71.92
2018-01-27T19:13:59.099Z,72.37
2018-01-27T19:16:27.660Z,73.05
2018-01-27T19:18:56.159Z,72.99
2018-01-27T19:21:24.703Z,72.26
2018-01-27T19:23:53.227Z,74.04
2018-01-27T19:26:21.727Z,72.96
2018-01-27T19:28:51.139Z,73.31
2018-01-27T19:31:20.400Z,73.12
2018-01-27T19:33:48.959Z,73.61
2018-01-27T19:36:17.512Z,72.82
2018-01-27T19:38:46.003Z,73.70
2018-01-27T19:41:14.552Z,74.00
2018-01-27T19:43:43.256Z,73.86
2018-01-27T19:46:12.667Z,74.79
2018-01-27T19:48:41.943Z,73.95
2018-01-27T19:51:10.631Z,73.56
2018-01-27T19:53:39.120Z,74.33
2018-01-27T19:56:07.614Z,74.38
2018-01-27T19:58:37.077Z,75.31
2018-01-27T20:01:05.639Z,75.47
2018-01-27T20:03:34.137Z,74.49
2018-01-27T20:06:03.440Z,74.60
2018-01-27T20:08:31.932Z,73.80
2018-01-27T20:11:01.329Z,73.93
2018-01-27T20:13:30.890Z,74.08
2018-01-27T20:15:59.378Z,74.92
2018-01-27T20:18:28.645Z,74.48
2018-01-27T20:20:58.044Z,74.92
2018-01-27T20:23:26.539Z,74.88
2018-01-27T20:25:55.068Z,75.20
2018-01-27T20:28:23.607Z,74.89
2018-01-27T20:30:52.115Z,74.86
2018-01-27T20:33:20.682Z,74.69
2018-01-27T20:35:49.534Z,76.68
2018-01-27T20:38:18.087Z,76.70
2018-01-27T20:40:46.580Z,76.24
2018-01-27T20:43:15.216Z,75.92
2018-01-27T20:45:43.712Z,76.47
2018-01-27T20:48:12.207Z,76.20
2018-01-27T20:50:40.823Z,76.30
2018-01-27T20:53:09.391Z,76.47
2018-01-27T20:55:37.911Z,76.08
2018-01-27T20:58:07.223Z,76.01
2018-01-27T21:00:36.555Z,75.74
2018-01-27T21:03:05.045Z,76.39
2018-01-27T21:05:33.776Z,75.87
2018-01-27T21:08:03.035Z,74.65
2018-01-27T21:10:31.535Z,75.15
2018-01-27T21:13:00.451Z,75.24
2018-01-27T21:15:29.772Z,74.80
2018-01-27T21:17:58.263Z,75.96
2018-01-27T21:20:27.078Z,76.31
2018-01-27T21:22:55.638Z,76.19
2018-01-27T21:25:25.023Z,74.94
2018-01-27T21:27:54.503Z,74.21
2018-01-27T21:30:23.072Z,74.40
2018-01-27T21:32:51.575Z,74.13
2018-01-27T21:35:20.899Z,74.75
2018-01-27T21:37:49.396Z,74.21
2018-01-27T21:40:17.956Z,74.66
2018-01-27T21:42:47.413Z,74.09
2018-01-27T21:45:15.912Z,73.80
2018-01-27T21:47:44.408Z,74.17
2018-01-27T21:50:13.966Z,73.96
2018-01-27T21:52:42.471Z,74.12
2018-01-27T21:55:11.043Z,74.17
2018-01-27T21:57:39.591Z,73.72
2018-01-27T22:00:08.143Z,74.45
2018-01-27T22:02:37.460Z,75.03
2018-01-27T22:05:06.875Z,75.66
2018-01-27T22:07:35.370Z,75.55
2018-01-27T22:10:03.906Z,75.64
2018-01-27T22:12:33.951Z,75.18
2018-01-27T22:15:02.448Z,74.63
2018-01-27T22:17:30.987Z,74.83
2018-01-27T22:19:59.627Z,74.91
2018-01-27T22:22:28.179Z,75.26
2018-01-27T22:24:56.675Z,75.67
2018-01-27T22:27:25.519Z,74.79
2018-01-27T22:29:54.019Z,74.16
2018-01-27T22:32:23.343Z,75.13
2018-01-27T22:34:51.888Z,75.14
2018-01-27T22:37:20.444Z,75.29
2018-01-27T22:39:48.996Z,75.45
2018-01-27T22:42:17.547Z,75.01
2018-01-27T22:44:46.877Z,75.69
2018-01-27T22:47:15.367Z,74.96
2018-01-27T22:49:44.068Z,74.53
2018-01-27T22:52:12.567Z,74.73
2018-01-27T22:54:41.067Z,74.50
2018-01-27T22:57:09.959Z,75.27
2018-01-27T22:59:38.447Z,74.24
2018-01-27T23:02:07.707Z,74.90
2018-01-27T23:04:36.307Z,74.98
2018-01-27T23:07:04.799Z,74.74
2018-01-27T23:09:33.299Z,74.10
2018-01-27T23:12:02.078Z,75.63
2018-01-27T23:14:30.631Z,74.61
2018-01-27T23:16:59.188Z,75.30
2018-01-27T23:19:28.131Z,75.03
2018-01-27T23:21:56.670Z,75.32
2018-01-27T23:24:25.188Z,75.46
2018-01-27T23:26:53.824Z,75.41
2018-01-27T23:29:22.315Z,75.00
2018-01-27T23:31:52.471Z,75.58
2018-01-27T23:34:21.167Z,75.44
2018-01-27T23:36:49.720Z,75.99
2018-01-27T23:39:18.203Z,76.14
2018-01-27T23:41:46.739Z,75.91
2018-01-27T23:44:15.236Z,76.60
2018-01-27T23:46:43.732Z,75.91
2018-01-27T23:49:12.460Z,75.85
2018-01-27T23:51:40.951Z,76.41
2018-01-27T23:54:10.208Z,76.15
2018-01-27T23:56:39.001Z,75.74
2018-01-27T23:59:07.547Z,75.76
